sensor_id;sensor_type;location;lat;lon;timestamp;pressure;altitude;pressure_sealevel;temperature;humidity
31092;BME280;67728;53.122;12.776;2023-03-25T00:01:25;99360.69;;;7.06;81.32
31092;BME280;67728;53.122;12.776;2023-03-25T00:02:59;99357.38;;;7.01;81.07
31092;BME280;67728;53.122;12.776;2023-03-25T00:04:30;99355.47;;;7.09;81.14
31092;BME280;67728;53.122;12.776;2023-03-25T00:06:05;99355.47;;;7.09;80.69
31092;BME280;67728;53.122;12.776;2023-03-25T00:07:37;99358.09;;;7.08;81.59
31092;BME280;67728;53.122;12.776;2023-03-25T00:09:08;99344.28;;;7.09;81.48
31092;BME280;67728;53.122;12.776;2023-03-25T00:10:40;99347.84;;;7.05;81.68
31092;BME280;67728;53.122;12.776;2023-03-25T00:12:12;99350.38;;;7.06;81.20
31092;BME280;67728;53.122;12.776;2023-03-25T00:13:44;99347.78;;;7.06;81.54
31092;BME280;67728;53.122;12.776;2023-03-25T00:15:17;99349.44;;;7.09;81.41
31092;BME280;67728;53.122;12.776;2023-03-25T00:16:52;99352.88;;;7.11;81.22
31092;BME280;67728;53.122;12.776;2023-03-25T00:18:26;99343.44;;;7.10;81.02
31092;BME280;67728;53.122;12.776;2023-03-25T00:20:03;99342.63;;;7.08;81.39
31092;BME280;67728;53.122;12.776;2023-03-25T00:21:40;99349.59;;;7.03;81.78
31092;BME280;67728;53.122;12.776;2023-03-25T00:23:13;99350.38;;;7.06;81.73
31092;BME280;67728;53.122;12.776;2023-03-25T00:24:45;99343.63;;;7.02;81.28
31092;BME280;67728;53.122;12.776;2023-03-25T00:26:17;99343.75;;;6.96;81.97
31092;BME280;67728;53.122;12.776;2023-03-25T00:27:48;99342.75;;;7.02;81.48
31092;BME280;67728;53.122;12.776;2023-03-25T00:29:20;99342.75;;;7.02;81.60
31092;BME280;67728;53.122;12.776;2023-03-25T00:30:52;99346.19;;;7.02;82.12
31092;BME280;67728;53.122;12.776;2023-03-25T00:32:24;99347.13;;;7.00;81.60
31092;BME280;67728;53.122;12.776;2023-03-25T00:33:58;99346.19;;;7.02;81.82
31092;BME280;67728;53.122;12.776;2023-03-25T00:35:30;99340.19;;;7.00;81.44
31092;BME280;67728;53.122;12.776;2023-03-25T00:37:02;99336.75;;;7.01;81.95
31092;BME280;67728;53.122;12.776;2023-03-25T00:38:34;99339.44;;;6.97;81.51
31092;BME280;67728;53.122;12.776;2023-03-25T00:40:08;99339.41;;;6.98;81.79
31092;BME280;67728;53.122;12.776;2023-03-25T00:41:40;99336.94;;;6.94;81.88
31092;BME280;67728;53.122;12.776;2023-03-25T00:43:12;99336.94;;;6.94;81.90
31092;BME280;67728;53.122;12.776;2023-03-25T00:44:44;99337.78;;;6.94;82.02
31092;BME280;67728;53.122;12.776;2023-03-25T00:46:19;99332.78;;;6.87;82.35
31092;BME280;67728;53.122;12.776;2023-03-25T00:47:53;99334.47;;;6.88;81.97
31092;BME280;67728;53.122;12.776;2023-03-25T00:49:25;99332.78;;;6.87;82.38
31092;BME280;67728;53.122;12.776;2023-03-25T00:50:57;99326.00;;;6.83;82.38
31092;BME280;67728;53.122;12.776;2023-03-25T00:52:36;99330.25;;;6.85;82.44
31092;BME280;67728;53.122;12.776;2023-03-25T00:54:08;99332.72;;;6.90;82.39
31092;BME280;67728;53.122;12.776;2023-03-25T00:55:40;99330.13;;;6.90;82.43
31092;BME280;67728;53.122;12.776;2023-03-25T00:57:12;99327.50;;;6.93;82.70
31092;BME280;67728;53.122;12.776;2023-03-25T00:58:44;99334.41;;;6.91;82.50
31092;BME280;67728;53.122;12.776;2023-03-25T01:00:16;99333.63;;;6.87;81.93
31092;BME280;67728;53.122;12.776;2023-03-25T01:01:48;99339.72;;;6.85;82.10
31092;BME280;67728;53.122;12.776;2023-03-25T01:03:24;99332.03;;;6.82;82.49
31092;BME280;67728;53.122;12.776;2023-03-25T01:04:58;99326.81;;;6.85;82.31
31092;BME280;67728;53.122;12.776;2023-03-25T01:06:33;99333.63;;;6.87;82.65
31092;BME280;67728;53.122;12.776;2023-03-25T01:08:05;99332.91;;;6.82;82.33
31092;BME280;67728;53.122;12.776;2023-03-25T01:09:35;99317.47;;;6.81;82.25
31092;BME280;67728;53.122;12.776;2023-03-25T01:11:16;99326.06;;;6.81;82.50
31092;BME280;67728;53.122;12.776;2023-03-25T01:12:49;99323.50;;;6.81;82.20
31092;BME280;67728;53.122;12.776;2023-03-25T01:14:21;99323.50;;;6.81;82.43
31092;BME280;67728;53.122;12.776;2023-03-25T01:15:56;99315.88;;;6.75;82.30
31092;BME280;67728;53.122;12.776;2023-03-25T01:17:27;99315.84;;;6.77;82.24
31092;BME280;67728;53.122;12.776;2023-03-25T01:19:00;99311.59;;;6.74;82.17
31092;BME280;67728;53.122;12.776;2023-03-25T01:20:30;99316.75;;;6.74;82.56
31092;BME280;67728;53.122;12.776;2023-03-25T01:22:02;99319.31;;;6.76;82.81
31092;BME280;67728;53.122;12.776;2023-03-25T01:23:34;99322.69;;;6.78;82.91
31092;BME280;67728;53.122;12.776;2023-03-25T01:25:06;99321.00;;;6.77;82.28
31092;BME280;67728;53.122;12.776;2023-03-25T01:26:38;99321.91;;;6.76;82.32
31092;BME280;67728;53.122;12.776;2023-03-25T01:28:10;99317.69;;;6.72;82.54
31092;BME280;67728;53.122;12.776;2023-03-25T01:29:42;99311.72;;;6.70;83.07
31092;BME280;67728;53.122;12.776;2023-03-25T01:31:14;99310.81;;;6.71;82.94
31092;BME280;67728;53.122;12.776;2023-03-25T01:32:46;99309.94;;;6.72;82.87
31092;BME280;67728;53.122;12.776;2023-03-25T01:34:18;99303.19;;;6.66;82.92
31092;BME280;67728;53.122;12.776;2023-03-25T01:35:50;99304.13;;;6.63;82.64
31092;BME280;67728;53.122;12.776;2023-03-25T01:37:20;99302.28;;;6.69;82.74
31092;BME280;67728;53.122;12.776;2023-03-25T01:38:56;99300.50;;;6.71;82.78
31092;BME280;67728;53.122;12.776;2023-03-25T01:40:28;99300.56;;;6.69;83.05
31092;BME280;67728;53.122;12.776;2023-03-25T01:41:59;99296.22;;;6.71;82.57
31092;BME280;67728;53.122;12.776;2023-03-25T01:43:32;99302.22;;;6.72;82.66
31092;BME280;67728;53.122;12.776;2023-03-25T01:45:13;99298.78;;;6.73;82.91
31092;BME280;67728;53.122;12.776;2023-03-25T01:46:45;99297.91;;;6.72;83.02
31092;BME280;67728;53.122;12.776;2023-03-25T01:48:21;99290.19;;;6.72;82.86
31092;BME280;67728;53.122;12.776;2023-03-25T01:49:55;99295.28;;;6.74;82.69
31092;BME280;67728;53.122;12.776;2023-03-25T01:51:29;99294.34;;;6.78;82.93
31092;BME280;67728;53.122;12.776;2023-03-25T01:53:03;99292.69;;;6.75;83.74
31092;BME280;67728;53.122;12.776;2023-03-25T01:54:36;99286.63;;;6.76;83.11
31092;BME280;67728;53.122;12.776;2023-03-25T01:56:10;99285.81;;;6.76;82.70
31092;BME280;67728;53.122;12.776;2023-03-25T01:57:43;99283.16;;;6.79;82.71
31092;BME280;67728;53.122;12.776;2023-03-25T01:59:17;99286.56;;;6.79;83.06
31092;BME280;67728;53.122;12.776;2023-03-25T02:00:50;99278.81;;;6.81;82.73
31092;BME280;67728;53.122;12.776;2023-03-25T02:02:21;99282.22;;;6.83;82.47
31092;BME280;67728;53.122;12.776;2023-03-25T02:03:56;99284.84;;;6.80;82.67
31092;BME280;67728;53.122;12.776;2023-03-25T02:05:45;99288.16;;;6.85;82.83
31092;BME280;67728;53.122;12.776;2023-03-25T02:07:19;99288.94;;;6.88;82.28
31092;BME280;67728;53.122;12.776;2023-03-25T02:08:51;99279.50;;;6.89;82.48
31092;BME280;67728;53.122;12.776;2023-03-25T02:10:24;99274.34;;;6.89;82.70
31092;BME280;67728;53.122;12.776;2023-03-25T02:11:55;99276.91;;;6.89;82.11
31092;BME280;67728;53.122;12.776;2023-03-25T02:13:27;99273.50;;;6.88;82.73
31092;BME280;67728;53.122;12.776;2023-03-25T02:15:00;99272.63;;;6.89;82.68
31092;BME280;67728;53.122;12.776;2023-03-25T02:16:39;99270.00;;;6.91;82.48
31092;BME280;67728;53.122;12.776;2023-03-25T02:18:23;99271.69;;;6.92;82.58
31092;BME280;67728;53.122;12.776;2023-03-25T02:22:35;99266.44;;;6.95;81.62
31092;BME280;67728;53.122;12.776;2023-03-25T02:27:14;99264.72;;;6.95;82.47
31092;BME280;67728;53.122;12.776;2023-03-25T02:29:02;99261.19;;;6.99;82.20
31092;BME280;67728;53.122;12.776;2023-03-25T02:30:49;99263.56;;;7.07;81.48
31092;BME280;67728;53.122;12.776;2023-03-25T02:32:38;99263.50;;;7.10;81.64
31092;BME280;67728;53.122;12.776;2023-03-25T02:34:25;99261.81;;;7.09;81.58
31092;BME280;67728;53.122;12.776;2023-03-25T02:38:21;99265.94;;;7.16;82.05
31092;BME280;67728;53.122;12.776;2023-03-25T02:39:58;99260.72;;;7.17;81.64
31092;BME280;67728;53.122;12.776;2023-03-25T02:41:38;99259.81;;;7.20;81.89
31092;BME280;67728;53.122;12.776;2023-03-25T02:43:18;99266.59;;;7.24;81.86
31092;BME280;67728;53.122;12.776;2023-03-25T02:44:57;99259.66;;;7.26;81.13
31092;BME280;67728;53.122;12.776;2023-03-25T02:46:30;99254.50;;;7.26;81.08
31092;BME280;67728;53.122;12.776;2023-03-25T02:48:05;99253.63;;;7.27;81.09
31092;BME280;67728;53.122;12.776;2023-03-25T02:49:41;99244.97;;;7.30;80.74
31092;BME280;67728;53.122;12.776;2023-03-25T02:51:20;99247.53;;;7.30;80.44
31092;BME280;67728;53.122;12.776;2023-03-25T02:52:56;99248.34;;;7.32;80.72
31092;BME280;67728;53.122;12.776;2023-03-25T02:54:30;99246.56;;;7.34;80.44
31092;BME280;67728;53.122;12.776;2023-03-25T02:56:06;99250.88;;;7.33;81.39
31092;BME280;67728;53.122;12.776;2023-03-25T02:57:43;99246.63;;;7.32;80.98
31092;BME280;67728;53.122;12.776;2023-03-25T02:59:17;99255.16;;;7.33;80.96
31092;BME280;67728;53.122;12.776;2023-03-25T03:00:52;99249.13;;;7.35;81.13
31092;BME280;67728;53.122;12.776;2023-03-25T03:02:25;99249.88;;;7.39;81.33
31092;BME280;67728;53.122;12.776;2023-03-25T03:03:57;99251.56;;;7.40;80.80
31092;BME280;67728;53.122;12.776;2023-03-25T03:05:31;99243.78;;;7.41;80.96
31092;BME280;67728;53.122;12.776;2023-03-25T03:07:03;99250.56;;;7.45;80.00
31092;BME280;67728;53.122;12.776;2023-03-25T03:08:46;99251.44;;;7.44;81.13
31092;BME280;67728;53.122;12.776;2023-03-25T03:10:25;99236.69;;;7.49;79.91
31092;BME280;67728;53.122;12.776;2023-03-25T03:12:15;99245.31;;;7.48;80.08
31092;BME280;67728;53.122;12.776;2023-03-25T03:13:59;99252.16;;;7.49;80.92
31092;BME280;67728;53.122;12.776;2023-03-25T03:15:43;99247.06;;;7.46;80.78
31092;BME280;67728;53.122;12.776;2023-03-25T03:17:21;99242.03;;;7.43;81.38
31092;BME280;67728;53.122;12.776;2023-03-25T03:19:00;99250.66;;;7.41;81.64
31092;BME280;67728;53.122;12.776;2023-03-25T03:20:37;99236.97;;;7.39;81.69
31092;BME280;67728;53.122;12.776;2023-03-25T03:22:19;99243.84;;;7.38;81.81
31092;BME280;67728;53.122;12.776;2023-03-25T03:23:58;99245.56;;;7.39;81.37
31092;BME280;67728;53.122;12.776;2023-03-25T03:25:34;99241.28;;;7.38;81.97
31092;BME280;67728;53.122;12.776;2023-03-25T03:27:10;99249.00;;;7.38;82.10
31092;BME280;67728;53.122;12.776;2023-03-25T03:28:46;99240.47;;;7.36;82.32
31092;BME280;67728;53.122;12.776;2023-03-25T03:30:24;99245.63;;;7.36;82.06
31092;BME280;67728;53.122;12.776;2023-03-25T03:32:03;99244.03;;;7.32;82.30
31092;BME280;67728;53.122;12.776;2023-03-25T03:33:40;99247.41;;;7.34;82.05
31092;BME280;67728;53.122;12.776;2023-03-25T03:35:16;99246.63;;;7.32;82.47
31092;BME280;67728;53.122;12.776;2023-03-25T03:36:51;99250.13;;;7.30;83.33
31092;BME280;67728;53.122;12.776;2023-03-25T03:38:28;99250.13;;;7.30;82.80
31092;BME280;67728;53.122;12.776;2023-03-25T03:40:03;99246.63;;;7.31;83.14
31092;BME280;67728;53.122;12.776;2023-03-25T03:41:40;99245.84;;;7.29;83.35
31092;BME280;67728;53.122;12.776;2023-03-25T03:43:16;99245.84;;;7.29;82.75
31092;BME280;67728;53.122;12.776;2023-03-25T03:44:54;99243.25;;;7.29;83.10
31092;BME280;67728;53.122;12.776;2023-03-25T03:46:32;99240.72;;;7.27;83.04
31092;BME280;67728;53.122;12.776;2023-03-25T03:48:07;99240.69;;;7.29;83.14
31092;BME280;67728;53.122;12.776;2023-03-25T03:49:43;99244.09;;;7.29;82.91
31092;BME280;67728;53.122;12.776;2023-03-25T03:51:20;99240.72;;;7.27;83.55
31092;BME280;67728;53.122;12.776;2023-03-25T03:52:59;99238.22;;;7.24;83.02
31092;BME280;67728;53.122;12.776;2023-03-25T03:54:37;99235.66;;;7.22;83.02
31092;BME280;67728;53.122;12.776;2023-03-25T03:56:14;99234.03;;;7.20;83.38
31092;BME280;67728;53.122;12.776;2023-03-25T03:57:53;99234.00;;;7.21;83.32
31092;BME280;67728;53.122;12.776;2023-03-25T03:59:32;99235.66;;;7.24;83.31
31092;BME280;67728;53.122;12.776;2023-03-25T04:01:09;99238.38;;;7.18;83.48
31092;BME280;67728;53.122;12.776;2023-03-25T04:02:45;99236.66;;;7.17;83.75
31092;BME280;67728;53.122;12.776;2023-03-25T04:04:20;99233.22;;;7.18;83.29
31092;BME280;67728;53.122;12.776;2023-03-25T04:05:58;99231.50;;;7.17;83.74
31092;BME280;67728;53.122;12.776;2023-03-25T04:07:39;99236.75;;;7.14;83.83
31092;BME280;67728;53.122;12.776;2023-03-25T04:09:16;99242.75;;;7.14;83.87
31092;BME280;67728;53.122;12.776;2023-03-25T04:11:00;99240.22;;;7.13;83.95
31092;BME280;67728;53.122;12.776;2023-03-25T04:12:37;99239.44;;;7.09;83.83
31092;BME280;67728;53.122;12.776;2023-03-25T04:14:12;99236.94;;;7.06;83.69
31092;BME280;67728;53.122;12.776;2023-03-25T04:15:44;99236.03;;;7.09;83.76
31092;BME280;67728;53.122;12.776;2023-03-25T04:17:16;99246.41;;;7.06;83.50
31092;BME280;67728;53.122;12.776;2023-03-25T04:18:48;99239.56;;;7.05;84.10
31092;BME280;67728;53.122;12.776;2023-03-25T04:20:24;99240.44;;;7.04;84.18
31092;BME280;67728;53.122;12.776;2023-03-25T04:21:59;99249.06;;;7.03;84.20
31092;BME280;67728;53.122;12.776;2023-03-25T04:23:31;99240.53;;;7.01;83.71
31092;BME280;67728;53.122;12.776;2023-03-25T04:25:04;99242.22;;;7.02;84.03
31092;BME280;67728;53.122;12.776;2023-03-25T04:26:36;99247.25;;;7.06;83.88
31092;BME280;67728;53.122;12.776;2023-03-25T04:28:07;99247.31;;;7.03;83.59
31092;BME280;67728;53.122;12.776;2023-03-25T04:29:44;99241.31;;;7.03;84.11
31092;BME280;67728;53.122;12.776;2023-03-25T04:31:16;99247.38;;;7.02;84.00
31092;BME280;67728;53.122;12.776;2023-03-25T04:32:48;99249.06;;;7.03;83.68
31092;BME280;67728;53.122;12.776;2023-03-25T04:34:21;99250.81;;;7.02;84.08
31092;BME280;67728;53.122;12.776;2023-03-25T04:35:52;99242.25;;;7.00;83.79
31092;BME280;67728;53.122;12.776;2023-03-25T04:37:24;99249.84;;;7.06;83.82
31092;BME280;67728;53.122;12.776;2023-03-25T04:38:56;99245.47;;;7.10;83.39
31092;BME280;67728;53.122;12.776;2023-03-25T04:40:28;99248.97;;;7.07;83.54
31092;BME280;67728;53.122;12.776;2023-03-25T04:41:59;99246.38;;;7.07;83.55
31092;BME280;67728;53.122;12.776;2023-03-25T04:43:32;99248.19;;;7.04;83.18
31092;BME280;67728;53.122;12.776;2023-03-25T04:45:06;99243.03;;;7.04;83.59
31092;BME280;67728;53.122;12.776;2023-03-25T04:46:38;99238.75;;;7.03;83.36
31092;BME280;67728;53.122;12.776;2023-03-25T04:48:18;99237.91;;;7.02;83.67
31092;BME280;67728;53.122;12.776;2023-03-25T04:49:50;99244.00;;;7.00;83.33
31092;BME280;67728;53.122;12.776;2023-03-25T04:51:21;99238.00;;;6.98;83.75
31092;BME280;67728;53.122;12.776;2023-03-25T04:52:54;99237.22;;;6.96;83.69
31092;BME280;67728;53.122;12.776;2023-03-25T04:54:26;99237.09;;;7.00;83.49
31092;BME280;67728;53.122;12.776;2023-03-25T04:55:58;99235.50;;;6.96;83.74
31092;BME280;67728;53.122;12.776;2023-03-25T04:57:29;99236.34;;;6.97;82.89
31092;BME280;67728;53.122;12.776;2023-03-25T04:59:02;99232.03;;;6.97;83.55
31092;BME280;67728;53.122;12.776;2023-03-25T05:00:35;99239.66;;;7.00;83.11
31092;BME280;67728;53.122;12.776;2023-03-25T05:02:07;99239.56;;;7.05;83.07
31092;BME280;67728;53.122;12.776;2023-03-25T05:03:42;99242.00;;;7.11;83.40
31092;BME280;67728;53.122;12.776;2023-03-25T05:05:13;99241.16;;;7.10;83.45
31092;BME280;67728;53.122;12.776;2023-03-25T05:06:48;99243.69;;;7.12;83.20
31092;BME280;67728;53.122;12.776;2023-03-25T05:08:20;99233.28;;;7.15;83.38
31092;BME280;67728;53.122;12.776;2023-03-25T05:09:52;99243.66;;;7.13;82.82
31092;BME280;67728;53.122;12.776;2023-03-25T05:11:24;99233.38;;;7.12;83.11
31092;BME280;67728;53.122;12.776;2023-03-25T05:12:58;99237.59;;;7.14;83.57
31092;BME280;67728;53.122;12.776;2023-03-25T05:14:30;99233.22;;;7.18;82.97
31092;BME280;67728;53.122;12.776;2023-03-25T05:16:03;99229.78;;;7.17;83.27
31092;BME280;67728;53.122;12.776;2023-03-25T05:17:36;99225.47;;;7.18;83.63
31092;BME280;67728;53.122;12.776;2023-03-25T05:19:08;99233.22;;;7.18;83.15
31092;BME280;67728;53.122;12.776;2023-03-25T05:20:41;99235.81;;;7.18;83.33
31092;BME280;67728;53.122;12.776;2023-03-25T05:22:12;99230.56;;;7.21;83.46
31092;BME280;67728;53.122;12.776;2023-03-25T05:23:44;99240.03;;;7.20;83.42
31092;BME280;67728;53.122;12.776;2023-03-25T05:25:16;99232.16;;;7.25;83.08
31092;BME280;67728;53.122;12.776;2023-03-25T05:26:51;99237.31;;;7.27;83.64
31092;BME280;67728;53.122;12.776;2023-03-25T05:28:24;99235.47;;;7.30;83.54
31092;BME280;67728;53.122;12.776;2023-03-25T05:29:56;99238.03;;;7.30;83.04
31092;BME280;67728;53.122;12.776;2023-03-25T05:31:29;99228.59;;;7.31;83.58
31092;BME280;67728;53.122;12.776;2023-03-25T05:33:01;99243.97;;;7.34;83.70
31092;BME280;67728;53.122;12.776;2023-03-25T05:34:32;99243.97;;;7.35;83.65
31092;BME280;67728;53.122;12.776;2023-03-25T05:36:04;99238.75;;;7.37;82.96
31092;BME280;67728;53.122;12.776;2023-03-25T05:37:38;99238.69;;;7.38;83.77
31092;BME280;67728;53.122;12.776;2023-03-25T05:39:10;99237.03;;;7.37;83.96
31092;BME280;67728;53.122;12.776;2023-03-25T05:40:41;99238.69;;;7.38;83.82
31092;BME280;67728;53.122;12.776;2023-03-25T05:42:12;99252.38;;;7.42;83.26
31092;BME280;67728;53.122;12.776;2023-03-25T05:43:44;99246.28;;;7.44;83.41
31092;BME280;67728;53.122;12.776;2023-03-25T05:45:17;99239.38;;;7.45;83.01
31092;BME280;67728;53.122;12.776;2023-03-25T05:46:50;99247.00;;;7.49;83.22
31092;BME280;67728;53.122;12.776;2023-03-25T05:48:22;99247.06;;;7.48;83.82
31092;BME280;67728;53.122;12.776;2023-03-25T05:49:52;99247.06;;;7.48;83.30
31092;BME280;67728;53.122;12.776;2023-03-25T05:51:24;99243.63;;;7.47;83.79
31092;BME280;67728;53.122;12.776;2023-03-25T05:52:56;99248.75;;;7.49;83.85
31092;BME280;67728;53.122;12.776;2023-03-25T05:54:29;99252.06;;;7.52;83.24
31092;BME280;67728;53.122;12.776;2023-03-25T05:56:00;99256.22;;;7.58;83.54
31092;BME280;67728;53.122;12.776;2023-03-25T05:57:32;99250.13;;;7.60;83.11
31092;BME280;67728;53.122;12.776;2023-03-25T05:59:04;99246.56;;;7.66;83.72
31092;BME280;67728;53.122;12.776;2023-03-25T06:00:35;99256.75;;;7.70;83.13
31092;BME280;67728;53.122;12.776;2023-03-25T06:02:12;99254.06;;;7.73;83.63
31092;BME280;67728;53.122;12.776;2023-03-25T06:03:43;99251.34;;;7.79;83.32
31092;BME280;67728;53.122;12.776;2023-03-25T06:05:16;99258.16;;;7.82;83.14
31092;BME280;67728;53.122;12.776;2023-03-25T06:06:52;99264.88;;;7.88;82.96
31092;BME280;67728;53.122;12.776;2023-03-25T06:08:24;99253.63;;;7.90;82.80
31092;BME280;67728;53.122;12.776;2023-03-25T06:09:56;99262.34;;;7.86;83.24
31092;BME280;67728;53.122;12.776;2023-03-25T06:11:26;99261.50;;;7.86;83.00
31092;BME280;67728;53.122;12.776;2023-03-25T06:12:58;99253.91;;;7.81;82.85
31092;BME280;67728;53.122;12.776;2023-03-25T06:14:30;99256.34;;;7.86;82.38
31092;BME280;67728;53.122;12.776;2023-03-25T06:16:00;99258.13;;;7.83;81.86
31092;BME280;67728;53.122;12.776;2023-03-25T06:17:34;99259.84;;;7.83;82.66
31092;BME280;67728;53.122;12.776;2023-03-25T06:19:07;99265.00;;;7.83;82.27
31092;BME280;67728;53.122;12.776;2023-03-25T06:20:39;99258.13;;;7.83;82.01
31092;BME280;67728;53.122;12.776;2023-03-25T06:22:10;99256.34;;;7.86;82.37
31092;BME280;67728;53.122;12.776;2023-03-25T06:23:42;99252.03;;;7.86;82.79
31092;BME280;67728;53.122;12.776;2023-03-25T06:25:16;99252.88;;;7.87;82.18
31092;BME280;67728;53.122;12.776;2023-03-25T06:26:48;99252.75;;;7.90;82.43
31092;BME280;67728;53.122;12.776;2023-03-25T06:28:20;99252.69;;;7.93;81.74
31092;BME280;67728;53.122;12.776;2023-03-25T06:29:53;99250.00;;;7.97;82.93
31092;BME280;67728;53.122;12.776;2023-03-25T06:31:25;99258.56;;;7.98;81.75
31092;BME280;67728;53.122;12.776;2023-03-25T06:32:58;99257.59;;;8.02;81.16
31092;BME280;67728;53.122;12.776;2023-03-25T06:34:32;99259.25;;;8.04;81.75
31092;BME280;67728;53.122;12.776;2023-03-25T06:36:05;99250.56;;;8.07;81.12
31092;BME280;67728;53.122;12.776;2023-03-25T06:37:37;99252.19;;;8.11;80.87
31092;BME280;67728;53.122;12.776;2023-03-25T06:39:09;99258.94;;;8.15;80.91
31092;BME280;67728;53.122;12.776;2023-03-25T06:40:41;99253.63;;;8.19;80.95
31092;BME280;67728;53.122;12.776;2023-03-25T06:42:11;99255.25;;;8.23;80.25
31092;BME280;67728;53.122;12.776;2023-03-25T06:43:43;99255.13;;;8.28;80.08
31092;BME280;67728;53.122;12.776;2023-03-25T06:45:15;99258.50;;;8.30;80.00
31092;BME280;67728;53.122;12.776;2023-03-25T06:46:47;99263.59;;;8.33;79.81
31092;BME280;67728;53.122;12.776;2023-03-25T06:48:20;99263.50;;;8.36;79.60
31092;BME280;67728;53.122;12.776;2023-03-25T06:49:51;99257.38;;;8.38;79.56
31092;BME280;67728;53.122;12.776;2023-03-25T06:51:23;99254.91;;;8.35;79.73
31092;BME280;67728;53.122;12.776;2023-03-25T06:52:55;99268.56;;;8.39;80.29
31092;BME280;67728;53.122;12.776;2023-03-25T06:54:27;99266.13;;;8.34;79.77
31092;BME280;67728;53.122;12.776;2023-03-25T06:55:58;99264.28;;;8.38;79.93
31092;BME280;67728;53.122;12.776;2023-03-25T06:57:29;99261.53;;;8.44;80.24
31092;BME280;67728;53.122;12.776;2023-03-25T06:59:01;99258.63;;;8.55;79.79
31092;BME280;67728;53.122;12.776;2023-03-25T07:00:32;99257.13;;;8.75;79.91
31092;BME280;67728;53.122;12.776;2023-03-25T07:02:04;99263.53;;;8.90;79.50
31092;BME280;67728;53.122;12.776;2023-03-25T07:03:37;99255.75;;;8.91;78.01
31092;BME280;67728;53.122;12.776;2023-03-25T07:05:10;99258.09;;;8.99;78.47
31092;BME280;67728;53.122;12.776;2023-03-25T07:06:41;99256.97;;;9.06;78.72
31092;BME280;67728;53.122;12.776;2023-03-25T07:08:15;99259.53;;;9.08;77.91
31092;BME280;67728;53.122;12.776;2023-03-25T07:09:50;99256.00;;;9.10;77.98
31092;BME280;67728;53.122;12.776;2023-03-25T07:11:24;99263.66;;;9.13;77.64
31092;BME280;67728;53.122;12.776;2023-03-25T07:12:56;99265.19;;;9.19;76.85
31092;BME280;67728;53.122;12.776;2023-03-25T07:14:28;99259.00;;;9.23;77.87
31092;BME280;67728;53.122;12.776;2023-03-25T07:15:59;99260.53;;;9.30;77.30
31092;BME280;67728;53.122;12.776;2023-03-25T07:17:31;99258.63;;;9.35;77.28
31092;BME280;67728;53.122;12.776;2023-03-25T07:19:04;99257.00;;;9.31;76.29
31092;BME280;67728;53.122;12.776;2023-03-25T07:20:35;99269.84;;;9.34;76.82
31092;BME280;67728;53.122;12.776;2023-03-25T07:22:07;99257.88;;;9.31;76.30
31092;BME280;67728;53.122;12.776;2023-03-25T07:23:39;99256.22;;;9.29;76.61
31092;BME280;67728;53.122;12.776;2023-03-25T07:25:09;99258.91;;;9.26;76.84
31092;BME280;67728;53.122;12.776;2023-03-25T07:26:41;99266.56;;;9.29;76.99
31092;BME280;67728;53.122;12.776;2023-03-25T07:28:12;99257.88;;;9.31;76.69
31092;BME280;67728;53.122;12.776;2023-03-25T07:29:44;99254.22;;;9.37;77.52
31092;BME280;67728;53.122;12.776;2023-03-25T07:31:15;99258.53;;;9.38;76.06
31092;BME280;67728;53.122;12.776;2023-03-25T07:32:47;99253.22;;;9.41;76.17
31092;BME280;67728;53.122;12.776;2023-03-25T07:34:20;99256.50;;;9.46;75.64
31092;BME280;67728;53.122;12.776;2023-03-25T07:35:52;99254.81;;;9.45;75.67
31092;BME280;67728;53.122;12.776;2023-03-25T07:37:23;99253.84;;;9.47;75.30
31092;BME280;67728;53.122;12.776;2023-03-25T07:38:55;99257.97;;;9.53;75.05
31092;BME280;67728;53.122;12.776;2023-03-25T07:40:26;99246.75;;;9.54;74.67
31092;BME280;67728;53.122;12.776;2023-03-25T07:41:58;99258.56;;;9.61;74.77
31092;BME280;67728;53.122;12.776;2023-03-25T07:43:30;99257.22;;;9.74;75.11
31092;BME280;67728;53.122;12.776;2023-03-25T07:45:02;99251.78;;;9.82;74.58
31092;BME280;67728;53.122;12.776;2023-03-25T07:46:34;99250.94;;;9.81;74.03
31092;BME280;67728;53.122;12.776;2023-03-25T07:48:05;99257.19;;;9.99;73.85
31092;BME280;67728;53.122;12.776;2023-03-25T07:49:44;99255.34;;;10.02;72.18
31092;BME280;67728;53.122;12.776;2023-03-25T07:51:16;99253.31;;;10.10;73.00
31092;BME280;67728;53.122;12.776;2023-03-25T07:52:48;99242.41;;;10.26;72.14
31092;BME280;67728;53.122;12.776;2023-03-25T07:54:20;99252.47;;;10.33;71.79
31092;BME280;67728;53.122;12.776;2023-03-25T07:55:53;99257.50;;;10.38;71.21
31092;BME280;67728;53.122;12.776;2023-03-25T07:57:25;99253.84;;;10.43;70.71
31092;BME280;67728;53.122;12.776;2023-03-25T07:58:56;99262.41;;;10.45;71.61
31092;BME280;67728;53.122;12.776;2023-03-25T08:00:28;99257.81;;;10.52;71.99
31092;BME280;67728;53.122;12.776;2023-03-25T08:02:00;99261.66;;;10.42;70.96
31092;BME280;67728;53.122;12.776;2023-03-25T08:03:32;99256.84;;;10.33;70.84
31092;BME280;67728;53.122;12.776;2023-03-25T08:05:06;99251.47;;;10.14;69.54
31092;BME280;67728;53.122;12.776;2023-03-25T08:06:37;99257.69;;;10.08;71.08
31092;BME280;67728;53.122;12.776;2023-03-25T08:08:09;99262.69;;;10.14;71.42
31092;BME280;67728;53.122;12.776;2023-03-25T08:09:41;99264.50;;;10.12;70.15
31092;BME280;67728;53.122;12.776;2023-03-25T08:11:13;99263.72;;;10.09;69.72
31092;BME280;67728;53.122;12.776;2023-03-25T08:12:44;99269.94;;;10.05;70.70
31092;BME280;67728;53.122;12.776;2023-03-25T08:14:16;99265.03;;;9.97;69.33
31092;BME280;67728;53.122;12.776;2023-03-25T08:15:48;99274.25;;;10.04;70.61
31092;BME280;67728;53.122;12.776;2023-03-25T08:17:19;99269.19;;;10.01;69.40
31092;BME280;67728;53.122;12.776;2023-03-25T08:18:51;99283.00;;;10.02;69.72
31092;BME280;67728;53.122;12.776;2023-03-25T08:20:24;99279.22;;;10.10;69.75
31092;BME280;67728;53.122;12.776;2023-03-25T08:21:56;99275.13;;;10.05;69.59
31092;BME280;67728;53.122;12.776;2023-03-25T08:23:27;99279.22;;;10.10;69.04
31092;BME280;67728;53.122;12.776;2023-03-25T08:24:59;99280.81;;;10.14;69.27